createdAt,value
2022-11-01T00:00:44.696Z,77542.13
2022-11-01T00:03:11.733Z,77548.28
2022-11-01T00:05:38.758Z,77566.81
2022-11-01T00:08:06.006Z,77546.25
2022-11-01T00:10:36.041Z,77550.34
2022-11-01T00:13:03.560Z,77558.56
2022-11-01T00:15:31.560Z,77546.25
2022-11-01T00:18:00.322Z,77550.34
2022-11-01T00:20:29.889Z,77546.25
2022-11-01T00:22:57.668Z,77546.25
2022-11-01T00:25:24.898Z,77558.56
2022-11-01T00:27:52.264Z,77556.53
2022-11-01T00:30:19.334Z,77540.06
2022-11-01T00:32:46.987Z,77538.03
2022-11-01T00:35:14.231Z,77550.34
2022-11-01T00:37:43.373Z,77544.19
2022-11-01T00:40:10.759Z,77550.34
2022-11-01T00:42:38.142Z,77566.81
2022-11-01T00:45:05.381Z,77558.56
2022-11-01T00:47:32.869Z,77558.56
2022-11-01T00:49:59.940Z,77550.34
2022-11-01T00:52:27.001Z,77550.34
2022-11-01T00:54:54.732Z,77554.47
2022-11-01T00:57:21.814Z,77544.19
2022-11-01T00:59:48.928Z,77538.03
2022-11-01T01:02:16.150Z,77538.03
2022-11-01T01:04:43.781Z,77552.41
2022-11-01T01:07:10.989Z,77548.28
2022-11-01T01:09:38.448Z,77542.13
2022-11-01T01:12:06.176Z,77546.25
2022-11-01T01:14:34.015Z,77540.06
2022-11-01T01:17:01.223Z,77542.13
2022-11-01T01:19:29.101Z,77542.13
2022-11-01T01:21:56.413Z,77546.25
2022-11-01T01:24:23.782Z,77550.34
2022-11-01T01:26:50.832Z,77529.78
2022-11-01T01:29:17.921Z,77531.84
2022-11-01T01:31:45.186Z,77546.25
2022-11-01T01:34:13.224Z,77552.41
2022-11-01T01:36:41.082Z,77542.13
2022-11-01T01:39:09.565Z,77554.47
2022-11-01T01:41:56.960Z,77554.47
2022-11-01T01:44:43.185Z,77542.13
2022-11-01T01:47:10.518Z,77535.97
2022-11-01T01:49:41.560Z,77533.91
2022-11-01T01:52:10.396Z,77542.13
2022-11-01T01:54:37.607Z,77546.25
2022-11-01T01:57:04.787Z,77542.13
2022-11-01T01:59:31.985Z,77540.06
2022-11-01T02:01:59.556Z,77542.13
2022-11-01T02:04:29.895Z,77535.97
2022-11-01T02:06:58.139Z,77531.84
2022-11-01T02:09:28.180Z,77525.69
2022-11-01T02:12:00.046Z,77529.78
2022-11-01T02:14:27.857Z,77533.91
2022-11-01T02:17:07.084Z,77517.44
2022-11-01T02:19:41.817Z,77529.78
2022-11-01T02:22:32.556Z,77554.47
2022-11-01T02:25:02.639Z,77558.56
2022-11-01T02:27:31.031Z,77558.56
2022-11-01T02:30:12.133Z,77566.81
2022-11-01T02:33:03.501Z,77575.03
2022-11-01T02:35:34.189Z,77562.69
2022-11-01T02:38:02.125Z,77570.91
2022-11-01T02:40:33.490Z,77562.69
2022-11-01T02:43:04.452Z,77562.69
2022-11-01T02:45:34.841Z,77554.47
2022-11-01T02:48:02.228Z,77570.91
2022-11-01T02:50:42.450Z,77566.81
2022-11-01T02:53:09.583Z,77587.38
2022-11-01T02:55:36.802Z,77591.47
2022-11-01T02:58:05.240Z,77579.16
2022-11-01T03:00:33.838Z,77583.25
2022-11-01T03:03:04.671Z,77595.59
2022-11-01T03:05:39.222Z,77589.41
2022-11-01T03:08:07.502Z,77579.16
2022-11-01T03:10:49.668Z,77575.03
2022-11-01T03:13:27.357Z,77566.81
2022-11-01T03:16:08.432Z,77554.47
2022-11-01T03:18:36.050Z,77575.03
2022-11-01T03:21:15.597Z,77572.97
2022-11-01T03:23:44.375Z,77558.56
2022-11-01T03:26:12.112Z,77583.25
2022-11-01T03:28:45.906Z,77591.47
2022-11-01T03:31:23.399Z,77593.53
2022-11-01T03:33:52.399Z,77587.38
2022-11-01T03:36:20.110Z,77583.25
2022-11-01T03:38:50.834Z,77577.09
2022-11-01T03:41:17.927Z,77579.16
2022-11-01T03:43:45.117Z,77560.63
2022-11-01T03:46:12.197Z,77568.84
2022-11-01T03:48:40.283Z,77579.16
2022-11-01T03:51:09.403Z,77591.47
2022-11-01T03:53:37.136Z,77595.59
2022-11-01T03:56:04.297Z,77597.66
2022-11-01T03:58:45.201Z,77585.31
2022-11-01T04:01:12.950Z,77591.47
2022-11-01T04:03:40.272Z,77579.16
2022-11-01T04:06:07.410Z,77587.38
2022-11-01T04:08:34.603Z,77579.16
2022-11-01T04:11:02.080Z,77589.41
2022-11-01T04:13:32.356Z,77591.47
2022-11-01T04:16:18.255Z,77583.25
2022-11-01T04:19:05.573Z,77579.16
2022-11-01T04:21:32.752Z,77583.25
2022-11-01T04:24:00.809Z,77587.38
2022-11-01T04:26:27.940Z,77581.19
2022-11-01T04:28:58.015Z,77579.16
2022-11-01T04:31:25.784Z,77585.31
2022-11-01T04:33:53.359Z,77579.16
2022-11-01T04:36:20.431Z,77568.84
2022-11-01T04:38:51.864Z,77562.69
2022-11-01T04:41:19.446Z,77558.56
2022-11-01T04:43:47.226Z,77554.47
2022-11-01T04:46:14.422Z,77550.34
2022-11-01T04:48:41.578Z,77550.34
2022-11-01T04:51:09.192Z,77542.13
2022-11-01T04:53:39.410Z,77533.91
2022-11-01T04:56:07.122Z,77546.25
2022-11-01T04:58:35.083Z,77538.03
2022-11-01T05:01:06.323Z,77542.13
2022-11-01T05:03:36.481Z,77540.06
2022-11-01T05:06:04.054Z,77554.47
2022-11-01T05:08:33.426Z,77562.69
2022-11-01T05:11:00.805Z,77546.25
2022-11-01T05:13:28.598Z,77546.25
2022-11-01T05:16:17.886Z,77538.03
2022-11-01T05:18:42.862Z,77535.97
2022-11-01T05:21:11.706Z,77542.13
2022-11-01T05:23:39.493Z,77533.91
2022-11-01T05:26:06.755Z,77538.03
2022-11-01T05:28:34.815Z,77542.13
2022-11-01T05:31:01.921Z,77527.72
2022-11-01T05:33:29.072Z,77525.69
2022-11-01T05:35:56.816Z,77538.03
2022-11-01T05:38:24.197Z,77529.78
2022-11-01T05:40:52.301Z,77529.78
2022-11-01T05:43:19.341Z,77521.56
2022-11-01T05:45:46.788Z,77527.72
2022-11-01T05:48:13.803Z,77513.34
2022-11-01T05:50:40.826Z,77517.44
2022-11-01T05:53:08.055Z,77521.56
2022-11-01T05:55:36.275Z,77521.56
2022-11-01T05:58:03.412Z,77513.34
2022-11-01T06:00:31.364Z,77509.22
2022-11-01T06:02:59.088Z,77513.34
2022-11-01T06:05:26.605Z,77496.91
2022-11-01T06:07:54.683Z,77484.56
2022-11-01T06:10:21.815Z,77484.56
2022-11-01T06:12:49.004Z,77472.22
2022-11-01T06:15:18.252Z,77490.72
2022-11-01T06:17:45.480Z,77480.44
2022-11-01T06:20:13.879Z,77492.78
2022-11-01T06:22:42.464Z,77484.56
2022-11-01T06:25:09.778Z,77464.00
2022-11-01T06:27:36.929Z,77459.88
2022-11-01T06:30:04.439Z,77363.25
2022-11-01T06:32:31.677Z,77036.34
2022-11-01T06:34:58.995Z,76781.41
2022-11-01T06:37:26.059Z,76600.50
2022-11-01T06:39:53.337Z,76551.16
2022-11-01T06:42:20.452Z,76440.16
2022-11-01T06:44:47.655Z,76547.06
2022-11-01T06:47:14.705Z,76501.81
2022-11-01T06:49:42.186Z,76273.66
2022-11-01T06:52:09.340Z,76185.28
2022-11-01T06:54:37.442Z,76308.59
2022-11-01T06:57:04.497Z,76436.03
2022-11-01T06:59:33.005Z,76294.22
2022-11-01T07:02:00.382Z,76197.59
2022-11-01T07:04:29.307Z,76212.00
2022-11-01T07:06:56.969Z,76064.00
2022-11-01T07:09:24.115Z,76177.06
2022-11-01T07:11:51.160Z,76201.72
2022-11-01T07:14:19.033Z,76320.94
2022-11-01T07:16:50.160Z,76341.50
2022-11-01T07:19:17.605Z,76764.97
2022-11-01T07:21:44.872Z,76902.69
2022-11-01T07:24:12.399Z,77001.38
2022-11-01T07:26:39.483Z,77081.56
2022-11-01T07:29:06.744Z,77098.00
2022-11-01T07:31:33.902Z,77061.00
2022-11-01T07:34:01.479Z,77056.88
2022-11-01T07:36:29.047Z,77073.34
2022-11-01T07:38:56.268Z,76947.94
2022-11-01T07:41:23.440Z,76816.34
2022-11-01T07:43:50.888Z,76633.38
2022-11-01T07:46:18.008Z,76366.16
2022-11-01T07:48:45.265Z,76312.72
2022-11-01T07:51:13.254Z,75975.63
2022-11-01T07:53:40.501Z,75897.53
2022-11-01T07:56:08.011Z,76074.28
2022-11-01T07:58:35.346Z,75881.09
2022-11-01T08:01:02.510Z,75788.59
2022-11-01T08:03:30.903Z,75749.56
2022-11-01T08:05:58.444Z,75605.69
2022-11-01T08:08:27.017Z,75774.22
2022-11-01T08:10:54.068Z,75881.09
2022-11-01T08:13:24.350Z,76047.56
2022-11-01T08:15:52.347Z,75959.19
2022-11-01T08:18:21.973Z,76185.28
2022-11-01T08:20:50.102Z,75893.41
2022-11-01T08:23:17.249Z,75724.88
2022-11-01T08:25:44.920Z,75720.78
2022-11-01T08:28:18.742Z,75739.28
2022-11-01T08:30:47.939Z,75973.56
2022-11-01T08:33:15.011Z,75942.75
2022-11-01T08:35:48.872Z,75720.78
2022-11-01T08:38:17.543Z,75963.28
2022-11-01T08:40:45.157Z,75852.31
2022-11-01T08:43:12.434Z,76037.28
2022-11-01T08:45:40.315Z,75792.72
2022-11-01T08:48:07.462Z,75955.06
2022-11-01T08:50:34.795Z,76033.19
2022-11-01T08:53:11.862Z,76008.50
2022-11-01T08:55:39.487Z,75955.06
2022-11-01T08:58:07.156Z,75909.84
2022-11-01T09:00:35.221Z,75597.47
2022-11-01T09:03:02.865Z,75539.94
2022-11-01T09:05:31.638Z,75957.13
2022-11-01T09:07:59.489Z,75683.78
2022-11-01T09:10:28.561Z,75839.97
2022-11-01T09:12:55.579Z,75546.09
2022-11-01T09:15:22.656Z,75420.72
2022-11-01T09:17:49.967Z,75225.53
2022-11-01T09:20:17.409Z,75270.72
2022-11-01T09:22:44.447Z,75630.34
2022-11-01T09:25:12.590Z,75595.41
2022-11-01T09:27:39.672Z,75578.97
2022-11-01T09:30:06.884Z,75461.84
2022-11-01T09:32:33.968Z,75330.31
2022-11-01T09:35:02.071Z,75441.28
2022-11-01T09:37:29.775Z,75470.06
2022-11-01T09:39:57.764Z,75630.34
2022-11-01T09:42:28.628Z,75552.25
2022-11-01T09:45:00.688Z,75439.22
2022-11-01T09:47:28.504Z,75517.31
2022-11-01T09:50:00.215Z,75268.66
2022-11-01T09:52:27.544Z,75291.28
2022-11-01T09:54:55.587Z,75256.34
2022-11-01T09:57:22.787Z,75268.66
2022-11-01T09:59:57.101Z,75231.69
2022-11-01T10:02:25.737Z,75190.59
2022-11-01T10:05:14.467Z,75359.09
2022-11-01T10:07:47.956Z,75239.91
2022-11-01T10:10:36.773Z,75161.81
2022-11-01T10:13:08.635Z,75502.94
2022-11-01T10:15:56.674Z,75334.44
2022-11-01T10:18:26.273Z,75585.13
2022-11-01T10:20:55.299Z,75527.59
2022-11-01T10:23:35.102Z,75474.16
2022-11-01T10:26:02.159Z,75391.97
2022-11-01T10:28:35.252Z,75326.22
2022-11-01T10:31:03.832Z,75507.03
2022-11-01T10:33:35.507Z,75437.19
2022-11-01T10:36:04.108Z,75441.28
2022-11-01T10:41:45.918Z,75340.59
2022-11-01T10:44:17.174Z,75470.06
2022-11-01T10:46:45.680Z,75396.06
2022-11-01T10:49:16.715Z,75457.72
2022-11-01T10:51:43.760Z,75626.25
2022-11-01T10:54:20.045Z,75618.03
2022-11-01T10:56:47.551Z,75502.94
2022-11-01T10:59:16.963Z,75589.25
2022-11-01T11:01:44.337Z,75718.72
2022-11-01T11:04:12.621Z,75798.88
2022-11-01T11:06:40.656Z,75733.09
2022-11-01T11:09:07.949Z,75605.69
2022-11-01T11:11:36.132Z,75724.88
2022-11-01T11:14:07.636Z,75720.78
2022-11-01T11:16:37.741Z,75749.56
2022-11-01T11:19:07.807Z,75819.44
2022-11-01T11:21:36.246Z,75807.09
2022-11-01T11:24:03.606Z,75774.22
2022-11-01T11:26:38.889Z,75868.75
2022-11-01T11:29:06.218Z,75864.63
2022-11-01T11:31:34.976Z,75932.47
2022-11-01T11:34:05.224Z,75992.06
2022-11-01T11:36:35.399Z,76012.63
2022-11-01T11:39:03.105Z,76020.84
2022-11-01T11:41:31.686Z,75996.19
2022-11-01T11:44:00.743Z,75909.84
2022-11-01T11:46:27.865Z,75876.97
2022-11-01T11:49:01.176Z,75922.19
2022-11-01T11:51:30.627Z,75979.75
2022-11-01T11:54:24.295Z,76002.34
2022-11-01T11:56:52.045Z,76051.66
2022-11-01T11:59:26.219Z,76041.41
2022-11-01T12:02:00.949Z,76033.19
2022-11-01T12:04:32.231Z,76041.41
2022-11-01T12:06:59.467Z,76066.06
2022-11-01T12:09:44.369Z,76115.38
2022-11-01T12:12:16.128Z,76066.06
2022-11-01T12:14:43.230Z,76008.50
2022-11-01T12:17:23.464Z,76004.41
2022-11-01T12:19:52.908Z,75955.06
2022-11-01T12:22:20.212Z,75961.25
2022-11-01T12:24:48.079Z,76053.72
2022-11-01T12:27:16.193Z,76084.56
2022-11-01T12:29:50.718Z,76090.72
2022-11-01T12:32:23.962Z,76057.84
2022-11-01T12:34:52.446Z,75967.41
2022-11-01T12:37:20.778Z,76090.72
2022-11-01T12:39:50.787Z,76189.38
2022-11-01T12:42:22.779Z,76263.38
2022-11-01T12:44:51.589Z,76218.16
2022-11-01T12:47:25.874Z,76197.59
2022-11-01T12:49:53.026Z,76288.03
2022-11-01T12:52:20.420Z,76329.16
2022-11-01T12:54:57.130Z,76236.66
2022-11-01T12:57:24.194Z,76357.94
2022-11-01T12:59:52.451Z,76399.03
2022-11-01T13:02:27.822Z,76325.03
2022-11-01T13:05:00.091Z,76353.81
2022-11-01T13:07:30.374Z,76399.03
2022-11-01T13:10:03.095Z,76419.59
2022-11-01T13:12:49.497Z,76397.00
2022-11-01T13:15:16.583Z,76397.00
2022-11-01T13:17:53.763Z,76460.72
2022-11-01T13:20:22.006Z,76481.28
2022-11-01T13:22:58.155Z,76473.03
2022-11-01T13:25:31.108Z,76489.50
2022-11-01T13:28:11.230Z,76505.94
2022-11-01T13:30:39.382Z,76481.28
2022-11-01T13:33:11.497Z,76551.16
2022-11-01T13:35:44.295Z,76590.22
2022-11-01T13:38:26.730Z,76555.28
2022-11-01T13:41:01.075Z,76612.84
2022-11-01T13:43:36.786Z,76588.16
2022-11-01T13:46:09.813Z,76604.59
2022-11-01T13:48:47.078Z,76604.59
2022-11-01T13:51:17.278Z,76649.84
2022-11-01T13:53:51.605Z,76612.84
2022-11-01T13:56:23.993Z,76674.50
2022-11-01T13:58:51.050Z,76662.16
2022-11-01T14:01:31.860Z,76668.34
2022-11-01T14:04:12.630Z,76717.66
2022-11-01T14:06:41.914Z,76719.72
2022-11-01T14:09:18.129Z,76713.56
2022-11-01T14:11:46.232Z,76727.94
2022-11-01T14:14:38.738Z,76750.56
2022-11-01T14:17:24.262Z,76744.41
2022-11-01T14:20:00.167Z,76748.50
2022-11-01T14:22:27.791Z,76746.44
2022-11-01T14:24:56.415Z,76736.16
2022-11-01T14:27:38.997Z,76756.72
2022-11-01T14:30:16.287Z,76773.19
2022-11-01T14:32:46.874Z,76781.41
2022-11-01T14:35:23.288Z,76781.41
2022-11-01T14:37:54.079Z,76812.25
2022-11-01T14:40:21.138Z,76812.25
2022-11-01T14:42:48.292Z,76843.06
2022-11-01T14:45:23.406Z,76841.03
2022-11-01T14:47:50.451Z,76826.63
2022-11-01T14:50:26.340Z,76845.13
2022-11-01T14:53:13.706Z,76851.31
2022-11-01T14:55:40.981Z,76869.81
2022-11-01T14:58:21.405Z,76859.53
2022-11-01T15:00:49.712Z,76863.63
2022-11-01T15:03:16.882Z,76859.53
2022-11-01T15:05:51.675Z,76861.56
2022-11-01T15:08:23.185Z,76878.03
2022-11-01T15:10:51.337Z,76884.19
2022-11-01T15:13:18.497Z,76896.53
2022-11-01T15:15:50.667Z,76892.41
2022-11-01T15:18:18.898Z,76888.31
2022-11-01T15:20:54.764Z,76923.25
2022-11-01T15:23:35.173Z,76937.66
2022-11-01T15:26:05.209Z,76933.53
2022-11-01T15:28:50.364Z,76919.16
2022-11-01T15:31:17.652Z,76937.66
2022-11-01T15:33:55.025Z,76933.53
2022-11-01T15:36:40.397Z,76915.03
2022-11-01T15:39:21.582Z,76921.19
2022-11-01T15:41:49.747Z,76925.31
2022-11-01T15:44:21.209Z,76935.59
2022-11-01T15:46:48.624Z,76947.94
2022-11-01T15:49:17.854Z,76954.09
2022-11-01T15:52:11.162Z,76962.31
2022-11-01T15:54:43.663Z,76970.53
2022-11-01T15:57:15.500Z,76974.66
2022-11-01T15:59:49.951Z,76974.66
2022-11-01T16:02:23.095Z,76978.75
2022-11-01T16:04:51.176Z,76960.25
2022-11-01T16:07:19.268Z,76962.31
2022-11-01T16:09:46.927Z,76966.44
2022-11-01T16:12:18.790Z,76978.75
2022-11-01T16:14:52.355Z,77005.50
2022-11-01T16:17:23.166Z,77011.66
2022-11-01T16:19:51.599Z,76999.31
2022-11-01T16:22:26.673Z,76999.31
2022-11-01T16:25:00.677Z,76995.22
2022-11-01T16:27:28.435Z,76999.31
2022-11-01T16:29:56.326Z,76991.09
2022-11-01T16:32:24.383Z,77007.53
2022-11-01T16:34:52.764Z,77003.44
2022-11-01T16:37:30.132Z,77013.72
2022-11-01T16:39:59.126Z,77019.88
2022-11-01T16:42:26.527Z,77024.00
2022-11-01T16:44:56.345Z,77015.78
2022-11-01T16:47:24.905Z,77011.66
2022-11-01T16:49:52.586Z,77001.38
2022-11-01T16:52:19.826Z,77011.66
2022-11-01T16:54:51.118Z,76995.22
2022-11-01T16:57:25.319Z,76991.09
2022-11-01T16:59:52.480Z,77003.44
2022-11-01T17:02:22.170Z,77001.38
2022-11-01T17:04:51.095Z,77011.66
2022-11-01T17:07:18.318Z,77009.59
2022-11-01T17:09:45.442Z,77044.56
2022-11-01T17:12:12.593Z,77026.03
2022-11-01T17:17:14.484Z,77024.00
2022-11-01T17:19:44.654Z,77028.09
2022-11-01T17:22:13.345Z,77015.78
2022-11-01T17:24:41.977Z,77019.88
2022-11-01T17:27:09.809Z,77024.00
2022-11-01T17:29:38.003Z,77036.34
2022-11-01T17:32:09.528Z,77040.44
2022-11-01T17:34:38.209Z,77044.56
2022-11-01T17:37:05.412Z,77028.09
2022-11-01T17:39:33.400Z,77019.88
2022-11-01T17:42:01.038Z,77040.44
2022-11-01T17:44:28.671Z,77050.72
2022-11-01T17:46:56.395Z,77048.66
2022-11-01T17:49:24.596Z,77061.00
2022-11-01T17:51:54.917Z,77061.00
2022-11-01T17:54:22.966Z,77077.44
2022-11-01T17:56:51.233Z,77083.63
2022-11-01T17:59:20.748Z,77069.22
2022-11-01T18:01:48.572Z,77069.22
2022-11-01T18:04:16.030Z,77081.56
2022-11-01T18:06:44.256Z,77087.72
2022-11-01T18:09:29.717Z,77102.13
2022-11-01T18:12:00.959Z,77085.66
2022-11-01T18:14:48.453Z,77081.56
2022-11-01T18:17:30.685Z,77071.28
2022-11-01T18:20:00.453Z,77069.22
2022-11-01T18:22:40.078Z,77065.13
2022-11-01T18:25:10.071Z,77075.38
2022-11-01T18:27:38.659Z,77067.16
2022-11-01T18:30:17.980Z,77075.38
2022-11-01T18:32:55.155Z,77069.22
2022-11-01T18:35:32.971Z,77069.22
2022-11-01T18:38:09.819Z,77077.44
2022-11-01T18:40:52.400Z,77079.50
2022-11-01T18:43:21.439Z,77093.91
2022-11-01T18:46:18.670Z,77081.56
2022-11-01T18:48:39.018Z,77073.34
2022-11-01T18:51:10.555Z,77073.34
2022-11-01T18:53:37.865Z,77071.28
2022-11-01T18:56:14.185Z,77071.28
2022-11-01T18:58:41.495Z,77093.91
2022-11-01T19:01:12.900Z,77085.66
2022-11-01T19:03:40.601Z,77077.44
2022-11-01T19:06:13.749Z,77073.34
2022-11-01T19:08:40.939Z,77069.22
2022-11-01T19:11:10.848Z,77061.00
2022-11-01T19:13:38.457Z,77058.94
2022-11-01T19:16:06.339Z,77061.00
2022-11-01T19:18:33.530Z,77038.38
2022-11-01T19:21:06.877Z,77069.22
2022-11-01T19:23:38.586Z,77056.88
2022-11-01T19:26:22.525Z,77056.88
2022-11-01T19:28:52.488Z,77032.22
2022-11-01T19:31:30.644Z,77042.50
2022-11-01T19:33:59.037Z,77032.22
2022-11-01T19:36:32.899Z,77028.09
2022-11-01T19:39:00.080Z,77024.00
2022-11-01T19:41:30.377Z,77048.66
2022-11-01T19:44:02.102Z,77036.34
2022-11-01T19:46:29.716Z,77028.09
2022-11-01T19:48:56.765Z,77030.16
2022-11-01T19:51:23.900Z,77021.94
2022-11-01T19:53:51.017Z,77019.88
2022-11-01T19:56:21.849Z,77015.78
2022-11-01T19:58:50.904Z,77005.50
2022-11-01T20:01:21.049Z,76989.03
2022-11-01T20:03:50.817Z,77001.38
2022-11-01T20:06:21.674Z,76987.00
2022-11-01T20:08:50.046Z,76980.81
2022-11-01T20:11:17.610Z,76999.31
2022-11-01T20:13:46.914Z,76982.88
2022-11-01T20:16:14.002Z,76991.09
2022-11-01T20:18:41.389Z,76991.09
2022-11-01T20:21:11.924Z,76987.00
2022-11-01T20:23:40.208Z,76982.88
2022-11-01T20:26:07.393Z,76976.72
2022-11-01T20:28:34.443Z,76968.47
2022-11-01T20:31:01.814Z,76962.31
2022-11-01T20:33:29.098Z,76970.53
2022-11-01T20:35:57.739Z,76966.44
2022-11-01T20:38:25.087Z,76962.31
2022-11-01T20:40:52.231Z,76966.44
2022-11-01T20:43:19.445Z,76945.88
2022-11-01T20:45:47.874Z,76962.31
2022-11-01T20:48:15.470Z,76968.47
2022-11-01T20:50:44.427Z,76958.19
2022-11-01T20:53:12.639Z,76962.31
2022-11-01T20:55:41.933Z,76960.25
2022-11-01T20:58:09.377Z,76943.81
2022-11-01T21:00:36.539Z,76962.31
2022-11-01T21:03:14.233Z,76954.09
2022-11-01T21:05:41.819Z,76943.81
2022-11-01T21:08:14.914Z,76939.69
2022-11-01T21:10:43.071Z,76941.75
2022-11-01T21:13:21.736Z,76933.53
2022-11-01T21:15:49.192Z,76941.75
2022-11-01T21:18:16.261Z,76945.88
2022-11-01T21:20:50.877Z,76945.88
2022-11-01T21:23:21.571Z,76937.66
2022-11-01T21:25:50.654Z,76935.59
2022-11-01T21:28:29.257Z,76908.88
2022-11-01T21:31:16.851Z,76896.53
2022-11-01T21:33:44.547Z,76888.31
2022-11-01T21:36:20.968Z,76884.19
2022-11-01T21:38:54.377Z,76908.88
2022-11-01T21:41:22.407Z,76921.19
2022-11-01T21:43:49.465Z,76941.75
2022-11-01T21:46:16.840Z,76962.31
2022-11-01T21:48:44.994Z,76974.66
2022-11-01T21:51:12.039Z,76993.16
2022-11-01T21:53:39.163Z,76995.22
2022-11-01T21:56:06.496Z,76999.31
2022-11-01T21:58:33.748Z,76997.25
2022-11-01T22:01:00.881Z,77001.38
2022-11-01T22:03:28.404Z,76999.31
2022-11-01T22:05:55.925Z,77011.66
2022-11-01T22:08:23.587Z,77005.50
2022-11-01T22:10:50.875Z,76974.66
2022-11-01T22:13:18.023Z,76978.75
2022-11-01T22:15:46.556Z,76995.22
2022-11-01T22:18:13.859Z,76974.66
2022-11-01T22:20:41.242Z,76978.75
2022-11-01T22:23:08.332Z,76991.09
2022-11-01T22:25:35.509Z,77019.88
2022-11-01T22:28:02.992Z,77003.44
2022-11-01T22:30:30.195Z,76999.31
2022-11-01T22:32:57.296Z,77015.78
2022-11-01T22:35:24.390Z,77011.66
2022-11-01T22:37:51.673Z,77017.81
2022-11-01T22:40:18.842Z,77021.94
2022-11-01T22:42:47.947Z,77019.88
2022-11-01T22:45:15.073Z,77019.88
2022-11-01T22:47:42.317Z,77015.78
2022-11-01T22:50:11.315Z,77028.09
2022-11-01T22:52:39.263Z,77015.78
2022-11-01T22:55:15.483Z,77011.66
2022-11-01T22:57:49.583Z,76991.09
2022-11-01T23:00:27.334Z,76995.22
2022-11-01T23:02:58.472Z,77019.88
2022-11-01T23:05:25.677Z,77036.34
2022-11-01T23:07:55.043Z,77032.22
2022-11-01T23:10:32.646Z,77017.81
2022-11-01T23:13:31.369Z,77003.44
2022-11-01T23:16:02.191Z,76999.31
2022-11-01T23:18:31.863Z,77001.38
2022-11-01T23:21:03.421Z,76987.00
2022-11-01T23:23:30.595Z,76980.81
2022-11-01T23:25:59.335Z,76982.88
2022-11-01T23:28:26.812Z,76987.00
2022-11-01T23:30:54.280Z,76978.75
2022-11-01T23:33:23.129Z,76987.00
2022-11-01T23:35:57.132Z,76978.75
2022-11-01T23:38:28.424Z,76984.94
2022-11-01T23:40:55.593Z,77019.88
2022-11-01T23:43:33.223Z,77017.81
2022-11-01T23:46:00.597Z,77036.34
2022-11-01T23:48:27.623Z,77036.34
2022-11-01T23:50:54.671Z,77036.34
2022-11-01T23:53:27.431Z,77040.44
2022-11-01T23:55:54.769Z,77036.34
2022-11-01T23:58:25.814Z,77044.56
